Time;durP1;ratioP1;P1;durP2;ratioP2;P2;SDS_P1;SDS_P2;PMS_P1;PMS_P2;Temp;Humidity;BMP_temperature;BMP_pressure;BME280_temperature;BME280_humidity;BME280_pressure;Samples;Min_cycle;Max_cycle;Signal;HPM_P1;HPM_P2
2022/02/18 00:00:54;;;;;;;3.38;0.77;;;2.50;99.90;;;;;;4987201;28;20046;-66
2022/02/18 00:03:23;;;;;;;6.22;1.60;;;2.50;99.90;;;;;;4986792;28;20050;-65
2022/02/18 00:05:51;;;;;;;4.65;0.82;;;2.50;99.90;;;;;;4991430;28;20074;-69
2022/02/18 00:08:18;;;;;;;3.15;0.57;;;2.50;99.90;;;;;;5008698;28;20081;-65
2022/02/18 00:10:45;;;;;;;3.80;0.57;;;2.50;99.90;;;;;;5005815;28;20141;-66
2022/02/18 00:13:15;;;;;;;5.45;0.75;;;2.40;99.90;;;;;;4988993;28;20401;-69
2022/02/18 00:15:42;;;;;;;3.88;0.80;;;2.50;99.90;;;;;;5024493;28;20678;-65
2022/02/18 00:18:09;;;;;;;7.25;1.05;;;2.40;99.90;;;;;;4998522;28;20070;-70
2022/02/18 00:20:36;;;;;;;3.92;0.77;;;2.50;99.90;;;;;;4987545;28;20047;-68
2022/02/18 00:23:05;;;;;;;6.10;0.80;;;2.50;99.90;;;;;;4986608;28;20066;-65
2022/02/18 00:25:34;;;;;;;1.70;0.90;;;2.40;99.90;;;;;;5005500;28;20077;-65
2022/02/18 00:28:02;;;;;;;3.25;0.70;;;2.50;99.90;;;;;;5006686;28;20052;-72
2022/02/18 00:30:30;;;;;;;3.13;0.65;;;2.50;99.90;;;;;;5006356;28;20115;-69
2022/02/18 00:32:57;;;;;;;3.42;1.38;;;2.50;99.90;;;;;;5007115;28;20416;-65
2022/02/18 00:35:24;;;;;;;7.65;1.35;;;2.50;99.90;;;;;;5016590;28;20149;-65
2022/02/18 00:37:54;;;;;;;3.97;1.13;;;2.50;99.90;;;;;;4999010;28;20072;-65
2022/02/18 00:40:24;;;;;;;5.30;0.82;;;2.50;99.90;;;;;;5014727;28;20507;-66
2022/02/18 00:42:53;;;;;;;7.30;1.00;;;2.40;99.90;;;;;;5001992;28;20108;-66
2022/02/18 00:45:20;;;;;;;6.15;1.35;;;2.40;99.90;;;;;;5036288;28;20165;-65
2022/02/18 00:47:47;;;;;;;5.00;1.15;;;2.40;99.90;;;;;;5004578;28;20183;-65
2022/02/18 00:50:14;;;;;;;3.30;0.70;;;2.40;99.90;;;;;;5006852;28;20053;-65
2022/02/18 00:52:44;;;;;;;5.40;1.08;;;2.40;99.90;;;;;;5005476;28;20416;-66
2022/02/18 00:55:12;;;;;;;5.13;1.10;;;2.40;99.90;;;;;;4988312;28;20046;-69
2022/02/18 00:57:40;;;;;;;3.22;1.05;;;2.50;99.90;;;;;;4988026;28;20374;-69
2022/02/18 01:00:11;;;;;;;9.97;1.73;;;2.40;99.90;;;;;;4987093;28;20085;-65
2022/02/18 01:02:38;;;;;;;6.65;1.00;;;2.50;99.90;;;;;;4988599;28;20050;-70
2022/02/18 01:05:06;;;;;;;1.98;0.70;;;2.50;99.90;;;;;;4985014;28;20050;-65
2022/02/18 01:07:34;;;;;;;4.38;0.77;;;2.50;99.90;;;;;;4988657;28;20085;-68
2022/02/18 01:10:03;;;;;;;6.38;1.48;;;2.50;99.90;;;;;;4993678;28;20046;-72
2022/02/18 01:12:33;;;;;;;6.20;1.02;;;2.60;99.90;;;;;;5023693;28;20073;-66
2022/02/18 01:15:00;;;;;;;2.92;2.10;;;2.60;99.90;;;;;;5004237;28;20085;-70
2022/02/18 01:17:27;;;;;;;3.00;2.00;;;2.60;99.90;;;;;;5005422;28;20358;-65
2022/02/18 01:19:54;;;;;;;2.53;0.90;;;2.70;99.90;;;;;;4991816;28;20153;-66
2022/02/18 01:22:21;;;;;;;5.63;1.08;;;2.70;99.90;;;;;;5006915;28;20112;-65
2022/02/18 01:24:48;;;;;;;6.53;1.35;;;2.70;99.90;;;;;;5005288;28;20488;-74
2022/02/18 01:27:17;;;;;;;4.18;0.80;;;2.80;99.90;;;;;;5003868;28;20046;-65
2022/02/18 01:29:44;;;;;;;11.02;2.28;;;2.80;99.90;;;;;;4985864;28;20046;-65
2022/02/18 01:32:12;;;;;;;2.33;0.90;;;2.70;99.90;;;;;;5030035;28;20092;-65
2022/02/18 01:34:40;;;;;;;3.30;0.98;;;2.70;99.90;;;;;;4995572;28;20683;-65
2022/02/18 01:37:08;;;;;;;10.02;1.50;;;2.70;99.90;;;;;;4983650;28;20054;-67
2022/02/18 01:39:35;;;;;;;9.15;3.58;;;2.70;99.90;;;;;;4986862;28;20453;-66
2022/02/18 01:42:03;;;;;;;5.93;1.02;;;2.70;99.90;;;;;;5018883;28;20168;-65
2022/02/18 01:44:38;;;;;;;2.50;1.05;;;2.70;99.90;;;;;;5017974;28;20104;-65
2022/02/18 01:47:20;;;;;;;6.00;2.85;;;2.70;99.90;;;;;;4998390;28;20053;-66
2022/02/18 01:49:49;;;;;;;5.95;1.17;;;2.60;99.90;;;;;;4924342;28;20129;-66
2022/02/18 01:52:26;;;;;;;7.25;0.90;;;2.70;99.90;;;;;;1117964;28;10023583;-66
2022/02/18 01:54:53;;;;;;;6.50;1.40;;;2.70;99.90;;;;;;5011480;28;20253;-66
2022/02/18 01:57:20;;;;;;;5.45;1.58;;;2.70;99.90;;;;;;5006771;28;20112;-74
2022/02/18 01:59:47;;;;;;;6.68;1.38;;;2.70;99.90;;;;;;5025149;28;20056;-65
2022/02/18 02:02:14;;;;;;;3.90;1.30;;;2.70;99.90;;;;;;5008121;28;20057;-65
2022/02/18 02:04:44;;;;;;;7.90;0.93;;;2.70;99.90;;;;;;5023400;28;20042;-76
2022/02/18 02:07:12;;;;;;;4.10;0.95;;;2.70;99.90;;;;;;5009526;28;20137;-66
2022/02/18 02:09:40;;;;;;;9.07;1.13;;;2.70;99.90;;;;;;5008233;28;20054;-65
2022/02/18 02:12:09;;;;;;;9.35;1.05;;;2.70;99.90;;;;;;5021284;28;20080;-65
2022/02/18 02:14:41;;;;;;;6.25;1.15;;;2.70;99.90;;;;;;5013860;28;20141;-67
2022/02/18 02:17:10;;;;;;;5.75;1.55;;;2.70;99.90;;;;;;5023055;28;20616;-71
2022/02/18 02:19:38;;;;;;;12.18;2.08;;;2.70;99.90;;;;;;5007877;28;20129;-68
2022/02/18 02:22:05;;;;;;;3.83;1.65;;;2.70;99.90;;;;;;5024176;28;20500;-66
2022/02/18 02:24:32;;;;;;;8.57;0.88;;;2.70;99.90;;;;;;5010926;28;20068;-66
2022/02/18 02:26:59;;;;;;;1.67;0.68;;;2.70;99.90;;;;;;5022865;28;20553;-66
2022/02/18 02:29:26;;;;;;;8.50;1.70;;;2.70;99.90;;;;;;5005256;28;20568;-65
2022/02/18 02:31:57;;;;;;;4.55;1.67;;;2.70;99.90;;;;;;5042209;28;20061;-66
2022/02/18 02:34:33;;;;;;;3.30;1.25;;;2.70;99.90;;;;;;5000696;28;20077;-66
2022/02/18 02:37:01;;;;;;;8.65;1.20;;;2.70;99.90;;;;;;5023907;28;20049;-65
2022/02/18 02:39:31;;;;;;;4.43;1.30;;;2.70;99.90;;;;;;5021428;28;20053;-65
2022/02/18 02:41:59;;;;;;;5.82;0.93;;;2.70;99.90;;;;;;5008542;28;20057;-69
2022/02/18 02:44:28;;;;;;;5.38;2.17;;;2.70;99.90;;;;;;5006005;28;20079;-65
2022/02/18 02:47:06;;;;;;;5.70;0.93;;;2.70;99.90;;;;;;5007103;28;20041;-67
2022/02/18 02:49:34;;;;;;;5.40;1.20;;;2.70;99.90;;;;;;5008658;28;20046;-65
2022/02/18 02:52:02;;;;;;;8.13;1.65;;;2.70;99.90;;;;;;5006163;28;20413;-73
2022/02/18 02:54:29;;;;;;;9.32;1.88;;;2.70;99.90;;;;;;5005211;28;20066;-68
2022/02/18 02:57:01;;;;;;;8.52;1.50;;;2.70;99.90;;;;;;5022510;28;20065;-66
2022/02/18 02:59:34;;;;;;;4.32;1.45;;;2.70;99.90;;;;;;4991050;28;20065;-67
2022/02/18 03:02:02;;;;;;;8.05;1.70;;;2.70;99.90;;;;;;5023623;28;20052;-71
2022/02/18 03:04:29;;;;;;;5.05;1.70;;;2.70;99.90;;;;;;5020194;28;20428;-65
2022/02/18 03:06:57;;;;;;;5.65;1.10;;;2.70;99.90;;;;;;5026702;28;20058;-65
2022/02/18 03:09:51;;;;;;;11.05;1.35;;;2.70;99.90;;;;;;5005925;28;20034;-70
2022/02/18 03:12:18;;;;;;;3.80;0.85;;;2.70;99.90;;;;;;5039140;28;20041;-65
2022/02/18 03:14:48;;;;;;;5.10;1.38;;;2.70;99.90;;;;;;5023830;28;20404;-65
2022/02/18 03:17:20;;;;;;;6.57;1.50;;;2.70;99.90;;;;;;5010017;28;20491;-67
2022/02/18 03:19:47;;;;;;;6.97;1.48;;;2.70;99.90;;;;;;5039795;28;20124;-67
2022/02/18 03:22:26;;;;;;;7.93;2.42;;;2.70;99.90;;;;;;5023980;28;20124;-66
2022/02/18 03:24:54;;;;;;;9.02;1.00;;;2.70;99.90;;;;;;5020749;28;20073;-65
2022/02/18 03:27:21;;;;;;;3.38;1.17;;;2.70;99.90;;;;;;5037372;28;20088;-65
2022/02/18 03:29:48;;;;;;;6.82;1.20;;;2.70;99.90;;;;;;5007748;28;20095;-71
2022/02/18 03:32:23;;;;;;;10.45;1.35;;;2.80;99.90;;;;;;5007042;28;20046;-65
2022/02/18 03:34:50;;;;;;;7.70;1.40;;;2.70;99.90;;;;;;5021931;28;20572;-66
2022/02/18 03:37:29;;;;;;;7.18;3.28;;;2.70;99.90;;;;;;4997980;28;20338;-65
2022/02/18 03:40:02;;;;;;;10.82;1.40;;;2.70;99.90;;;;;;5012420;28;20050;-66
2022/02/18 03:42:29;;;;;;;4.65;1.13;;;2.70;99.90;;;;;;4967600;28;22216;-66
2022/02/18 03:45:02;;;;;;;4.35;0.90;;;2.70;99.90;;;;;;4719140;28;10001078;-67
2022/02/18 03:47:29;;;;;;;7.25;1.55;;;2.70;99.90;;;;;;683926;28;10002472;-65
2022/02/18 03:50:00;;;;;;;4.50;0.93;;;2.70;99.90;;;;;;5019608;28;20240;-71
2022/02/18 03:52:27;;;;;;;2.88;0.95;;;2.70;99.90;;;;;;5007363;28;20057;-66
2022/02/18 03:54:55;;;;;;;5.97;1.38;;;2.70;99.90;;;;;;5021879;28;20104;-65
2022/02/18 03:57:22;;;;;;;4.97;1.08;;;2.70;99.90;;;;;;5020343;28;20069;-65
2022/02/18 03:59:49;;;;;;;8.30;1.52;;;2.70;99.90;;;;;;5006356;28;20050;-67
2022/02/18 04:02:16;;;;;;;6.32;1.83;;;2.70;99.90;;;;;;5008529;28;20127;-66
2022/02/18 04:04:43;;;;;;;13.63;2.10;;;2.70;99.90;;;;;;5006352;28;20040;-65
2022/02/18 04:07:20;;;;;;;11.35;1.30;;;2.70;99.90;;;;;;5004855;28;20137;-65
2022/02/18 04:09:52;;;;;;;4.43;1.75;;;2.70;99.90;;;;;;5006661;28;20126;-65
2022/02/18 04:12:23;;;;;;;5.78;1.33;;;2.70;99.90;;;;;;4995748;28;20061;-68
2022/02/18 04:14:53;;;;;;;4.25;0.80;;;2.70;99.90;;;;;;5022627;28;20130;-67
2022/02/18 04:17:24;;;;;;;6.72;1.70;;;2.70;99.90;;;;;;4999765;28;20417;-67
2022/02/18 04:20:03;;;;;;;12.60;1.33;;;2.70;99.90;;;;;;4986382;28;20046;-66
2022/02/18 04:22:54;;;;;;;6.40;1.35;;;2.70;99.90;;;;;;5019325;28;20093;-65
2022/02/18 04:25:34;;;;;;;5.68;1.90;;;2.70;99.90;;;;;;4995531;28;20149;-71
2022/02/18 04:28:05;;;;;;;7.15;1.52;;;2.70;99.90;;;;;;4989309;28;20060;-67
2022/02/18 04:30:33;;;;;;;4.07;0.82;;;2.70;99.90;;;;;;4986245;28;20141;-65
2022/02/18 04:33:00;;;;;;;6.13;1.00;;;2.70;99.90;;;;;;4987150;28;20038;-65
2022/02/18 04:35:27;;;;;;;12.80;1.08;;;2.70;99.90;;;;;;4986047;28;20460;-65
2022/02/18 04:37:54;;;;;;;9.45;2.72;;;2.70;99.90;;;;;;4988633;28;20073;-65
2022/02/18 04:40:21;;;;;;;9.63;1.45;;;2.70;99.90;;;;;;4986563;28;20129;-67
2022/02/18 04:42:48;;;;;;;8.52;2.08;;;2.70;99.90;;;;;;4986961;28;20109;-66
2022/02/18 04:45:15;;;;;;;6.72;1.98;;;2.70;99.90;;;;;;4984823;28;20113;-65
2022/02/18 04:47:42;;;;;;;4.78;1.13;;;2.70;99.90;;;;;;4988994;28;20462;-65
2022/02/18 04:50:10;;;;;;;10.45;1.67;;;2.80;99.90;;;;;;4988900;28;20519;-65
2022/02/18 04:52:38;;;;;;;3.03;1.50;;;2.80;99.90;;;;;;4986886;28;20117;-66
2022/02/18 04:55:06;;;;;;;4.97;1.02;;;2.70;99.90;;;;;;4986005;28;20452;-65
2022/02/18 04:57:37;;;;;;;7.80;2.17;;;2.80;99.90;;;;;;4989069;28;20461;-65
2022/02/18 05:00:05;;;;;;;12.02;1.42;;;2.70;99.90;;;;;;4987767;28;20552;-71
2022/02/18 05:02:32;;;;;;;12.13;2.70;;;2.80;99.90;;;;;;5018809;28;20416;-81
2022/02/18 05:04:59;;;;;;;3.80;0.85;;;2.80;99.90;;;;;;4986976;28;20050;-65
2022/02/18 05:07:26;;;;;;;5.22;1.20;;;2.70;99.90;;;;;;4983099;28;20058;-68
2022/02/18 05:09:53;;;;;;;5.30;1.10;;;2.80;99.90;;;;;;4985259;28;20128;-65
2022/02/18 05:12:20;;;;;;;9.48;2.20;;;2.70;99.90;;;;;;4986699;28;20462;-64
2022/02/18 05:14:49;;;;;;;4.20;0.60;;;2.70;99.90;;;;;;5000220;28;20085;-66
2022/02/18 05:17:16;;;;;;;5.78;1.05;;;2.80;99.90;;;;;;5001188;28;20073;-65
2022/02/18 05:19:42;;;;;;;4.32;1.30;;;2.70;99.90;;;;;;5007016;28;20052;-65
2022/02/18 05:22:09;;;;;;;4.80;1.52;;;2.70;99.90;;;;;;5005035;28;20119;-66
2022/02/18 05:24:37;;;;;;;6.13;1.88;;;2.70;99.90;;;;;;5006265;28;20471;-66
2022/02/18 05:27:05;;;;;;;3.63;1.00;;;2.80;99.90;;;;;;5004517;28;20050;-66
2022/02/18 05:29:33;;;;;;;7.95;1.65;;;2.80;99.90;;;;;;5006539;28;20125;-68
2022/02/18 05:32:00;;;;;;;6.07;0.88;;;2.80;99.90;;;;;;5024970;28;20535;-66
2022/02/18 05:34:28;;;;;;;6.25;0.93;;;2.80;99.90;;;;;;5009936;28;20054;-65
2022/02/18 05:36:55;;;;;;;11.13;1.98;;;2.80;99.90;;;;;;5008924;28;20149;-68
2022/02/18 05:39:22;;;;;;;10.15;1.83;;;2.90;99.90;;;;;;5009077;28;20073;-66
2022/02/18 05:41:50;;;;;;;4.57;1.58;;;2.90;99.90;;;;;;5010380;28;20126;-65
2022/02/18 05:44:31;;;;;;;2.97;0.95;;;2.90;99.90;;;;;;3805026;28;10024101;-70
2022/02/18 05:46:59;;;;;;;6.47;1.60;;;2.90;99.90;;;;;;2072407;28;10002062;-68
2022/02/18 05:49:28;;;;;;;5.55;2.00;;;3.00;99.90;;;;;;4986722;28;20086;-66
2022/02/18 05:51:55;;;;;;;10.35;1.83;;;3.00;99.90;;;;;;4983209;28;20098;-66
2022/02/18 05:54:22;;;;;;;8.30;1.10;;;3.00;99.90;;;;;;4983828;28;20864;-68
2022/02/18 05:56:51;;;;;;;5.13;1.10;;;2.90;99.90;;;;;;5004754;28;20050;-66
2022/02/18 05:59:19;;;;;;;9.02;1.33;;;3.00;99.90;;;;;;5005827;28;20113;-66
2022/02/18 06:01:47;;;;;;;7.93;1.55;;;3.00;99.90;;;;;;5008961;28;20122;-68
2022/02/18 06:04:14;;;;;;;9.10;2.05;;;2.90;99.90;;;;;;5001376;28;20082;-69
2022/02/18 06:06:42;;;;;;;8.60;1.50;;;3.00;99.90;;;;;;4990687;28;20054;-65
2022/02/18 06:09:10;;;;;;;8.43;2.60;;;2.90;99.90;;;;;;4988537;28;20084;-66
2022/02/18 06:11:38;;;;;;;12.00;2.03;;;2.90;99.90;;;;;;4988140;28;20129;-65
2022/02/18 06:14:05;;;;;;;10.50;1.52;;;2.90;99.90;;;;;;4993725;28;20062;-66
2022/02/18 06:16:32;;;;;;;8.98;2.40;;;2.90;99.90;;;;;;5000619;28;20518;-65
2022/02/18 06:18:59;;;;;;;9.98;1.25;;;2.90;99.90;;;;;;5008773;28;20061;-69
2022/02/18 06:21:26;;;;;;;7.75;2.75;;;2.90;99.90;;;;;;5008064;28;20507;-66
2022/02/18 06:23:53;;;;;;;13.13;1.63;;;2.90;99.90;;;;;;4992627;28;20062;-66
2022/02/18 06:26:20;;;;;;;9.13;1.10;;;2.80;99.90;;;;;;4990099;28;20140;-69
2022/02/18 06:28:47;;;;;;;10.20;1.52;;;2.90;99.90;;;;;;5020524;28;20051;-65
2022/02/18 06:31:16;;;;;;;4.45;1.30;;;2.90;99.90;;;;;;4987759;28;20081;-66
2022/02/18 06:33:45;;;;;;;12.88;5.18;;;2.90;99.90;;;;;;4988706;28;20046;-65
2022/02/18 06:36:12;;;;;;;11.50;1.60;;;2.90;99.90;;;;;;4990637;28;20480;-67
2022/02/18 06:38:42;;;;;;;13.32;1.58;;;2.90;99.90;;;;;;4989687;28;20488;-66
2022/02/18 06:41:09;;;;;;;;;;;2.80;99.90;;;;;;4987020;28;20412;-69
2022/02/18 06:43:36;;;;;;;5.47;1.75;;;2.90;99.90;;;;;;4989528;28;20468;-72
2022/02/18 06:46:04;;;;;;;8.25;1.65;;;2.90;99.90;;;;;;4988479;28;20381;-67
2022/02/18 06:48:31;;;;;;;10.50;2.55;;;2.90;99.90;;;;;;4989040;28;20503;-71
2022/02/18 06:50:58;;;;;;;6.97;3.03;;;2.90;99.90;;;;;;5003246;28;20099;-66
2022/02/18 06:53:25;;;;;;;14.38;2.13;;;2.90;99.90;;;;;;4987729;28;20057;-67
2022/02/18 06:55:52;;;;;;;9.18;2.08;;;3.00;99.90;;;;;;4986647;28;20053;-75
2022/02/18 06:58:19;;;;;;;4.22;1.30;;;2.90;99.90;;;;;;4989340;28;20050;-65
2022/02/18 07:00:48;;;;;;;6.50;1.35;;;2.90;99.90;;;;;;5001664;28;20111;-66
2022/02/18 07:03:15;;;;;;;13.23;1.80;;;3.00;99.90;;;;;;5006262;28;20045;-70
2022/02/18 07:05:42;;;;;;;9.85;1.35;;;3.00;99.90;;;;;;5014240;28;20053;-65
2022/02/18 07:08:09;;;;;;;6.38;1.45;;;3.00;99.90;;;;;;5007969;28;20073;-69
2022/02/18 07:10:36;;;;;;;18.23;3.17;;;3.00;99.90;;;;;;5008535;28;20821;-69
2022/02/18 07:13:03;;;;;;;4.47;1.27;;;3.00;99.90;;;;;;5008016;28;20137;-65
2022/02/18 07:15:30;;;;;;;6.15;2.00;;;3.00;99.90;;;;;;5005351;28;20444;-66
2022/02/18 07:17:59;;;;;;;10.18;3.67;;;3.00;99.90;;;;;;5006139;28;20045;-68
2022/02/18 07:20:26;;;;;;;6.32;1.67;;;3.00;99.90;;;;;;5008738;28;20447;-66
2022/02/18 07:22:54;;;;;;;9.00;1.40;;;3.10;99.90;;;;;;5005953;28;20050;-65
2022/02/18 07:25:22;;;;;;;7.13;1.27;;;3.10;99.90;;;;;;4990324;28;20104;-75
2022/02/18 07:27:49;;;;;;;8.85;2.10;;;3.10;99.90;;;;;;5005960;28;20045;-65
2022/02/18 07:30:16;;;;;;;14.82;2.10;;;3.10;99.90;;;;;;5009364;28;20104;-66
2022/02/18 07:32:43;;;;;;;9.27;1.88;;;3.10;99.90;;;;;;5009997;28;20038;-68
2022/02/18 07:35:11;;;;;;;11.13;1.98;;;3.10;99.90;;;;;;5006009;28;20160;-66
2022/02/18 07:37:39;;;;;;;11.82;2.25;;;3.10;99.90;;;;;;5009724;28;20053;-66
2022/02/18 07:40:07;;;;;;;15.07;2.72;;;3.10;99.90;;;;;;5007007;28;20084;-68
2022/02/18 07:42:33;;;;;;;12.80;2.78;;;3.10;99.90;;;;;;5007734;28;20050;-66
2022/02/18 07:45:00;;;;;;;18.92;2.35;;;3.20;99.90;;;;;;5006254;28;20054;-66
2022/02/18 07:47:27;;;;;;;10.60;1.52;;;3.20;99.90;;;;;;4989800;28;20184;-66
2022/02/18 07:49:57;;;;;;;8.98;2.80;;;3.20;99.90;;;;;;5005201;28;20056;-66
2022/02/18 07:52:24;;;;;;;12.15;2.65;;;3.20;99.90;;;;;;5006729;28;20055;-70
2022/02/18 07:54:51;;;;;;;12.68;1.83;;;3.20;99.90;;;;;;5007694;28;20092;-65
2022/02/18 07:57:18;;;;;;;10.10;2.33;;;3.20;99.90;;;;;;5003326;28;20626;-65
2022/02/18 07:59:47;;;;;;;9.90;2.35;;;3.20;99.90;;;;;;5007079;28;20057;-65
2022/02/18 08:02:14;;;;;;;13.18;2.55;;;3.30;99.90;;;;;;5006779;28;20057;-70
2022/02/18 08:04:42;;;;;;;12.95;2.53;;;3.30;99.90;;;;;;5023057;28;20074;-66
2022/02/18 08:07:10;;;;;;;7.03;2.40;;;3.30;99.90;;;;;;5003624;28;20054;-66
2022/02/18 08:09:37;;;;;;;12.38;1.80;;;3.30;99.90;;;;;;5006145;28;20052;-66
2022/02/18 08:12:05;;;;;;;20.05;2.63;;;3.30;99.90;;;;;;5005374;28;20046;-69
2022/02/18 08:14:32;;;;;;;12.23;1.52;;;3.30;99.90;;;;;;4994735;28;20081;-66
2022/02/18 08:16:59;;;;;;;14.25;2.35;;;3.30;99.90;;;;;;5000495;28;20057;-65
2022/02/18 08:19:26;;;;;;;11.45;1.77;;;3.40;99.90;;;;;;5006627;28;20049;-66
2022/02/18 08:21:55;;;;;;;15.32;2.75;;;3.40;99.90;;;;;;5005511;28;20129;-66
2022/02/18 08:24:22;;;;;;;11.27;1.65;;;3.40;99.90;;;;;;5007223;28;20057;-66
2022/02/18 08:26:51;;;;;;;8.75;1.63;;;3.40;99.90;;;;;;5006588;28;20058;-65
2022/02/18 08:29:21;;;;;;;6.53;1.80;;;3.40;99.90;;;;;;5004134;28;20041;-67
2022/02/18 08:31:49;;;;;;;13.23;2.55;;;3.50;99.90;;;;;;4987813;28;20304;-65
2022/02/18 08:34:16;;;;;;;12.15;2.17;;;3.40;99.90;;;;;;4987362;28;20405;-66
2022/02/18 08:36:44;;;;;;;13.82;2.30;;;3.50;99.90;;;;;;5018435;28;20093;-67
2022/02/18 08:39:11;;;;;;;11.73;2.38;;;3.50;99.90;;;;;;4985210;28;20713;-70
2022/02/18 08:41:39;;;;;;;8.43;1.73;;;3.50;99.90;;;;;;4992030;28;20049;-69
2022/02/18 08:44:05;;;;;;;9.10;2.40;;;3.50;99.90;;;;;;4999607;28;20115;-72
2022/02/18 08:46:34;;;;;;;14.48;2.35;;;3.50;99.90;;;;;;4986540;28;20117;-65
2022/02/18 08:49:07;;;;;;;4.75;1.45;;;3.60;99.90;;;;;;4977386;28;20124;-68
2022/02/18 08:51:36;;;;;;;11.73;2.47;;;3.60;99.90;;;;;;4986270;28;20054;-65
2022/02/18 08:54:03;;;;;;;10.27;1.38;;;3.60;99.90;;;;;;4986875;28;20051;-68
2022/02/18 08:56:33;;;;;;;10.73;2.25;;;3.60;99.90;;;;;;4974520;28;20059;-67
2022/02/18 08:59:02;;;;;;;12.18;3.50;;;3.60;99.90;;;;;;4986614;28;20074;-65
2022/02/18 09:01:29;;;;;;;11.07;1.80;;;3.70;99.90;;;;;;4985024;28;20104;-69
2022/02/18 09:03:56;;;;;;;9.77;2.70;;;3.70;99.90;;;;;;4989449;28;20489;-67
2022/02/18 09:06:23;;;;;;;12.45;1.75;;;3.70;99.90;;;;;;4994751;28;20050;-68
2022/02/18 09:08:50;;;;;;;7.22;2.50;;;3.70;99.90;;;;;;4991721;28;20042;-65
2022/02/18 09:11:19;;;;;;;10.77;1.70;;;3.80;99.90;;;;;;4989903;28;20555;-69
2022/02/18 09:13:47;;;;;;;10.18;1.77;;;3.80;99.90;;;;;;4989625;28;20106;-66
2022/02/18 09:16:14;;;;;;;8.57;1.42;;;3.80;99.90;;;;;;4985810;28;20742;-66
2022/02/18 09:18:46;;;;;;;7.10;1.38;;;3.80;99.90;;;;;;4992191;28;20092;-67
2022/02/18 09:21:13;;;;;;;10.43;2.10;;;3.80;99.90;;;;;;4989277;28;20046;-66
2022/02/18 09:23:57;;;;;;;14.07;2.47;;;3.90;99.90;;;;;;4990933;28;20050;-66
2022/02/18 09:26:26;;;;;;;7.25;1.48;;;3.90;99.90;;;;;;4990904;28;20069;-66
2022/02/18 09:28:56;;;;;;;7.50;2.28;;;3.90;99.90;;;;;;4990683;28;20074;-66
2022/02/18 09:31:24;;;;;;;12.13;3.60;;;4.00;99.90;;;;;;4989529;28;20408;-66
2022/02/18 09:33:52;;;;;;;6.45;1.60;;;4.00;99.90;;;;;;4991050;28;20128;-68
2022/02/18 09:36:19;;;;;;;12.13;2.05;;;4.00;99.90;;;;;;4990504;28;20078;-65
2022/02/18 09:38:46;;;;;;;8.73;1.85;;;4.00;99.90;;;;;;4991296;28;20169;-73
2022/02/18 09:41:13;;;;;;;9.45;1.52;;;4.00;99.90;;;;;;5020114;28;20046;-65
2022/02/18 09:43:41;;;;;;;14.32;2.40;;;4.10;99.90;;;;;;4989899;28;20076;-68
2022/02/18 09:46:10;;;;;;;8.50;2.85;;;4.10;99.90;;;;;;4991588;28;20068;-73
2022/02/18 09:48:38;;;;;;;9.93;1.88;;;4.20;99.90;;;;;;5002821;28;20116;-67
2022/02/18 09:51:07;;;;;;;9.52;2.50;;;4.20;99.90;;;;;;5007461;28;20070;-67
2022/02/18 09:53:35;;;;;;;8.88;2.47;;;4.20;99.90;;;;;;5010484;28;20066;-69
2022/02/18 09:56:06;;;;;;;13.00;3.72;;;4.20;99.90;;;;;;5009888;28;20042;-68
2022/02/18 09:58:35;;;;;;;7.90;1.77;;;4.30;99.90;;;;;;5010288;28;20492;-65
2022/02/18 10:01:02;;;;;;;12.07;2.75;;;4.20;99.90;;;;;;5019270;28;20053;-66
2022/02/18 10:03:30;;;;;;;10.63;1.67;;;4.30;99.90;;;;;;5002687;28;20073;-65
2022/02/18 10:05:57;;;;;;;15.07;2.63;;;4.30;99.90;;;;;;5010216;28;20065;-65
2022/02/18 10:08:25;;;;;;;9.95;1.88;;;4.30;99.90;;;;;;5007856;28;20546;-66
2022/02/18 10:11:06;;;;;;;12.38;2.08;;;4.30;99.90;;;;;;5009724;28;20054;-65
2022/02/18 10:13:39;;;;;;;11.65;1.90;;;4.40;99.90;;;;;;5002430;28;20081;-67
2022/02/18 10:16:21;;;;;;;9.45;2.00;;;4.40;99.90;;;;;;4992384;28;20106;-72
2022/02/18 10:18:51;;;;;;;14.77;2.65;;;4.50;99.90;;;;;;5000553;28;20520;-68
2022/02/18 10:21:25;;;;;;;8.63;2.40;;;4.50;99.90;;;;;;5006579;28;20138;-67
2022/02/18 10:24:09;;;;;;;11.68;3.55;;;4.50;99.90;;;;;;5003093;28;20054;-65
2022/02/18 10:26:55;;;;;;;10.57;1.80;;;4.60;99.90;;;;;;4988881;28;20053;-67
2022/02/18 10:29:35;;;;;;;10.52;2.80;;;4.60;99.90;;;;;;4987098;28;20051;-65
2022/02/18 10:32:09;;;;;;;6.45;2.03;;;4.60;99.90;;;;;;4988360;28;20058;-70
2022/02/18 10:34:55;;;;;;;8.77;2.30;;;4.60;99.90;;;;;;4987922;28;20133;-69
2022/02/18 10:37:24;;;;;;;11.13;3.00;;;4.60;99.90;;;;;;5005811;28;20049;-65
2022/02/18 10:40:08;;;;;;;18.10;2.55;;;4.60;99.90;;;;;;5007746;28;20120;-65
2022/02/18 10:42:35;;;;;;;18.27;2.72;;;4.70;99.90;;;;;;5009334;28;20432;-66
2022/02/18 10:45:19;;;;;;;14.18;2.13;;;4.70;99.90;;;;;;5006291;28;20533;-71
2022/02/18 10:47:47;;;;;;;10.23;2.05;;;4.70;99.90;;;;;;5010417;28;20069;-67
2022/02/18 10:50:21;;;;;;;11.02;3.03;;;4.80;99.90;;;;;;5009886;28;20116;-68
2022/02/18 10:53:10;;;;;;;12.18;3.17;;;4.80;99.90;;;;;;4999860;28;20047;-65
2022/02/18 10:56:12;;;;;;;24.73;3.38;;;4.80;99.90;;;;;;4987043;28;20044;-68
2022/02/18 10:58:46;;;;;;;13.88;1.83;;;4.80;99.90;;;;;;4989181;28;20505;-70
2022/02/18 11:01:21;;;;;;;22.40;4.05;;;4.90;99.90;;;;;;4994684;28;20093;-66
2022/02/18 11:04:02;;;;;;;11.25;2.47;;;4.80;99.90;;;;;;5007688;28;20053;-65
2022/02/18 11:06:36;;;;;;;16.02;1.85;;;4.80;99.90;;;;;;5001984;28;20057;-65
2022/02/18 11:09:05;;;;;;;8.23;2.22;;;4.80;99.90;;;;;;5008728;28;20104;-70
2022/02/18 11:11:34;;;;;;;11.60;2.15;;;4.80;99.90;;;;;;5005953;28;20065;-67
2022/02/18 11:14:03;;;;;;;12.05;2.15;;;4.80;99.90;;;;;;5008994;28;20054;-65
2022/02/18 11:16:33;;;;;;;15.90;3.97;;;4.80;99.90;;;;;;5005906;28;20415;-65
2022/02/18 11:19:00;;;;;;;11.65;2.80;;;4.80;99.90;;;;;;5008950;28;20477;-65
2022/02/18 11:21:29;;;;;;;16.88;3.45;;;4.80;99.90;;;;;;5033289;28;20066;-69
2022/02/18 11:23:57;;;;;;;15.52;2.28;;;4.70;99.90;;;;;;4986295;28;20066;-72
2022/02/18 11:26:30;;;;;;;23.80;4.35;;;4.70;99.90;;;;;;4986413;28;20050;-65
2022/02/18 11:29:02;;;;;;;10.05;2.92;;;4.70;99.90;;;;;;4988612;28;20504;-66
2022/02/18 11:31:38;;;;;;;11.75;2.58;;;4.70;99.90;;;;;;5004726;28;20071;-65
2022/02/18 11:34:24;;;;;;;11.60;4.20;;;4.80;99.90;;;;;;5006920;28;20066;-80
2022/02/18 11:37:09;;;;;;;16.75;2.67;;;4.80;99.90;;;;;;5007150;28;20108;-66
2022/02/18 11:40:04;;;;;;;11.90;3.33;;;4.80;99.90;;;;;;5004886;28;20092;-69
2022/02/18 11:42:40;;;;;;;13.10;2.45;;;4.80;99.90;;;;;;4996778;28;20419;-79
2022/02/18 11:45:27;;;;;;;11.90;2.78;;;4.90;99.90;;;;;;4984090;28;20065;-65
2022/02/18 11:47:54;;;;;;;14.82;3.50;;;4.90;99.90;;;;;;4996747;28;20093;-65
2022/02/18 11:50:27;;;;;;;19.17;3.17;;;4.90;99.90;;;;;;4997980;28;20128;-65
2022/02/18 11:52:54;;;;;;;5.85;2.45;;;4.90;99.90;;;;;;4986458;28;20941;-67
2022/02/18 11:55:36;;;;;;;19.40;3.05;;;4.90;99.90;;;;;;4985657;28;20050;-68
2022/02/18 11:58:12;;;;;;;13.45;2.22;;;4.90;99.90;;;;;;4980198;28;20046;-67
2022/02/18 12:00:49;;;;;;;10.27;2.53;;;4.90;99.90;;;;;;4987838;28;20419;-68
2022/02/18 12:03:23;;;;;;;8.90;2.08;;;4.90;99.90;;;;;;4984305;28;20073;-66
2022/02/18 12:06:06;;;;;;;16.80;2.60;;;5.00;99.90;;;;;;4984372;28;20133;-65
2022/02/18 12:08:51;;;;;;;15.95;3.75;;;5.00;99.90;;;;;;4987185;28;20101;-65
2022/02/18 12:11:19;;;;;;;13.85;2.90;;;5.00;99.90;;;;;;4979806;28;20043;-70
2022/02/18 12:13:50;;;;;;;15.07;4.10;;;5.10;99.90;;;;;;4985861;28;20469;-66
2022/02/18 12:16:19;;;;;;;15.35;2.58;;;5.10;99.90;;;;;;4986591;28;20042;-69
2022/02/18 12:19:04;;;;;;;18.55;2.85;;;5.10;99.90;;;;;;4987309;28;20113;-65
2022/02/18 12:21:32;;;;;;;15.98;3.15;;;5.10;99.90;;;;;;5003698;28;20080;-66
2022/02/18 12:24:38;;;;;;;17.92;3.58;;;5.10;99.90;;;;;;5006598;28;20073;-66
2022/02/18 12:27:24;;;;;;;9.90;2.10;;;5.10;99.90;;;;;;5004580;28;20070;-71
2022/02/18 12:29:56;;;;;;;12.02;2.63;;;5.10;99.90;;;;;;5006460;28;20050;-69
2022/02/18 12:32:23;;;;;;;9.00;2.28;;;5.20;99.90;;;;;;5005561;28;20496;-65
2022/02/18 12:35:04;;;;;;;9.13;2.33;;;5.10;99.90;;;;;;5007069;28;20069;-68
2022/02/18 12:37:31;;;;;;;;;;;5.10;99.90;;;;;;5003370;28;20042;-68
2022/02/18 12:40:00;;;;;;;12.35;3.15;;;5.10;99.90;;;;;;5006513;28;19991;-66
2022/02/18 12:42:31;;;;;;;19.73;2.30;;;5.10;99.90;;;;;;5006811;28;20046;-70
2022/02/18 12:45:00;;;;;;;17.63;3.40;;;5.10;99.90;;;;;;5004638;28;20168;-72
2022/02/18 12:47:29;;;;;;;11.15;2.25;;;5.10;99.90;;;;;;5005751;28;20109;-65
2022/02/18 12:49:59;;;;;;;17.35;2.28;;;5.10;99.90;;;;;;5004094;28;20528;-69
2022/02/18 12:52:28;;;;;;;8.38;2.22;;;5.10;99.90;;;;;;5005095;28;20590;-68
2022/02/18 12:54:58;;;;;;;20.70;3.30;;;5.10;99.90;;;;;;5004247;28;20164;-71
2022/02/18 12:57:28;;;;;;;11.17;2.90;;;5.10;99.90;;;;;;5005388;28;24475;-71
2022/02/18 12:59:56;;;;;;;12.85;3.60;;;5.10;99.90;;;;;;5004465;28;20101;-69
2022/02/18 13:02:52;;;;;;;25.75;3.65;;;5.20;99.90;;;;;;5006802;28;20053;-66
2022/02/18 13:05:28;;;;;;;9.48;2.88;;;5.20;99.90;;;;;;5004252;28;20487;-65
2022/02/18 13:08:04;;;;;;;9.07;2.22;;;5.20;99.90;;;;;;5006458;28;20141;-65